createdAt,value
2022-10-19T00:01:33.069Z,101275.00
2022-10-19T00:04:35.050Z,101275.00
2022-10-19T00:07:37.457Z,101282.13
2022-10-19T00:10:40.942Z,101284.78
2022-10-19T00:13:43.887Z,101276.75
2022-10-19T00:16:47.626Z,101272.31
2022-10-19T00:19:49.829Z,101265.22
2022-10-19T00:22:51.857Z,101272.34
2022-10-19T00:25:57.520Z,101266.09
2022-10-19T00:29:00.048Z,101266.13
2022-10-19T00:32:02.360Z,101253.66
2022-10-19T00:35:04.627Z,101257.19
2022-10-19T00:38:06.892Z,101255.38
2022-10-19T00:41:09.118Z,101254.47
2022-10-19T00:44:15.794Z,101255.38
2022-10-19T00:47:19.561Z,101253.56
2022-10-19T00:50:21.879Z,101253.56
2022-10-19T00:53:26.621Z,101252.66
2022-10-19T00:56:28.904Z,101244.63
2022-10-19T00:59:32.312Z,101245.53
2022-10-19T01:02:35.539Z,101252.63
2022-10-19T01:05:38.749Z,101246.38
2022-10-19T01:08:41.026Z,101241.94
2022-10-19T01:11:48.854Z,101239.25
2022-10-19T01:15:12.805Z,101238.34
2022-10-19T01:18:27.245Z,101236.59
2022-10-19T01:21:34.777Z,101236.59
2022-10-19T01:24:51.570Z,101238.38
2022-10-19T01:28:14.810Z,101240.19
2022-10-19T01:31:49.659Z,101233.06
2022-10-19T01:35:03.096Z,101229.50
2022-10-19T01:38:26.972Z,101223.31
2022-10-19T01:41:40.240Z,101217.06
2022-10-19T01:44:44.571Z,101224.16
2022-10-19T01:48:03.318Z,101214.38
2022-10-19T01:51:15.144Z,101213.47
2022-10-19T01:54:18.222Z,101214.41
2022-10-19T01:57:26.896Z,101213.50
2022-10-19T02:00:30.028Z,101201.94
2022-10-19T02:03:34.352Z,101204.63
2022-10-19T02:06:36.864Z,101208.19
2022-10-19T02:09:38.874Z,101203.75
2022-10-19T02:12:41.955Z,101198.41
2022-10-19T02:15:47.746Z,101201.94
2022-10-19T02:18:51.284Z,101188.59
2022-10-19T02:21:54.097Z,101194.81
2022-10-19T02:24:56.410Z,101186.78
2022-10-19T02:27:58.631Z,101188.56
2022-10-19T02:31:01.304Z,101176.16
2022-10-19T02:34:03.501Z,101185.88
2022-10-19T02:37:06.515Z,101176.16
2022-10-19T02:40:09.670Z,101176.09
2022-10-19T02:43:14.452Z,101179.63
2022-10-19T02:46:36.604Z,101185.81
2022-10-19T02:49:39.563Z,101178.72
2022-10-19T02:52:41.697Z,101184.88
2022-10-19T02:55:44.501Z,101174.25
2022-10-19T02:58:46.525Z,101171.59
2022-10-19T03:01:49.113Z,101180.41
2022-10-19T03:04:51.424Z,101178.66
2022-10-19T03:07:53.732Z,101170.63
2022-10-19T03:10:59.011Z,101171.53
2022-10-19T03:14:01.267Z,101172.44
2022-10-19T03:17:04.143Z,101175.13
2022-10-19T03:20:07.055Z,101166.25
2022-10-19T03:23:09.121Z,101167.97
2022-10-19T03:26:15.563Z,101162.66
2022-10-19T03:29:17.577Z,101172.44
2022-10-19T03:32:19.837Z,101163.56
2022-10-19T03:35:21.793Z,101165.34
2022-10-19T03:38:24.025Z,101165.31
2022-10-19T03:41:28.541Z,101160.00
2022-10-19T03:44:30.675Z,101160.00
2022-10-19T03:47:33.523Z,101160.88
2022-10-19T03:50:36.023Z,101154.72
2022-10-19T03:53:38.501Z,101166.25
2022-10-19T03:56:41.153Z,101157.38
2022-10-19T03:59:43.260Z,101162.72
2022-10-19T04:02:45.419Z,101156.47
2022-10-19T04:05:47.477Z,101162.72
2022-10-19T04:08:50.207Z,101160.06
2022-10-19T04:11:52.283Z,101160.09
2022-10-19T04:14:57.204Z,101151.25
2022-10-19T04:17:59.777Z,101164.53
2022-10-19T04:21:04.433Z,101155.66
2022-10-19T04:24:09.327Z,101148.53
2022-10-19T04:27:11.470Z,101147.66
2022-10-19T04:30:13.540Z,101146.81
2022-10-19T04:33:15.885Z,101145.03
2022-10-19T04:36:18.254Z,101142.41
2022-10-19T04:39:20.638Z,101132.59
2022-10-19T04:42:22.679Z,101132.56
2022-10-19T04:45:24.885Z,101134.34
2022-10-19T04:48:26.822Z,101136.13
2022-10-19T04:51:29.183Z,101126.41
2022-10-19T04:54:31.241Z,101138.84
2022-10-19T04:57:33.639Z,101144.13
2022-10-19T05:00:38.782Z,101134.38
2022-10-19T05:03:41.185Z,101133.50
2022-10-19T05:06:43.251Z,101132.59
2022-10-19T05:09:45.588Z,101125.53
2022-10-19T05:12:47.617Z,101137.97
2022-10-19T05:15:57.305Z,101133.47
2022-10-19T05:18:59.827Z,101136.97
2022-10-19T05:22:02.249Z,101137.03
2022-10-19T05:25:05.183Z,101138.84
2022-10-19T05:28:07.478Z,101146.78
2022-10-19T05:31:15.377Z,101139.69
2022-10-19T05:34:17.771Z,101143.25
2022-10-19T05:37:19.947Z,101135.25
2022-10-19T05:40:22.150Z,101144.13
2022-10-19T05:43:24.177Z,101145.91
2022-10-19T05:46:28.499Z,101135.22
2022-10-19T05:49:30.589Z,101139.66
2022-10-19T05:52:33.014Z,101139.63
2022-10-19T05:55:36.146Z,101140.50
2022-10-19T05:58:38.683Z,101132.50
2022-10-19T06:01:40.741Z,101134.31
2022-10-19T06:04:43.200Z,101140.53
2022-10-19T06:07:45.317Z,101149.44
2022-10-19T06:10:48.527Z,101136.09
2022-10-19T06:13:52.010Z,101150.28
2022-10-19T06:16:54.301Z,101144.97
2022-10-19T06:19:56.320Z,101144.06
2022-10-19T06:22:58.645Z,101143.25
2022-10-19T06:26:05.986Z,101136.13
2022-10-19T06:29:08.288Z,101139.69
2022-10-19T06:32:10.333Z,101137.91
2022-10-19T06:35:12.645Z,101142.31
2022-10-19T06:38:14.800Z,101130.81
2022-10-19T06:41:17.552Z,101145.00
2022-10-19T06:44:19.799Z,101141.50
2022-10-19T06:47:22.121Z,101138.84
2022-10-19T06:50:24.263Z,101134.38
2022-10-19T06:53:27.229Z,101130.88
2022-10-19T06:56:29.703Z,101131.75
2022-10-19T06:59:31.983Z,101132.66
2022-10-19T07:02:34.227Z,101141.59
2022-10-19T07:05:36.496Z,101143.34
2022-10-19T07:08:40.662Z,101139.78
2022-10-19T07:11:46.136Z,101151.31
2022-10-19T07:14:48.439Z,101151.31
2022-10-19T07:17:50.665Z,101161.97
2022-10-19T07:21:01.067Z,101156.66
2022-10-19T07:24:03.989Z,101154.91
2022-10-19T07:27:06.376Z,101160.22
2022-10-19T07:30:08.960Z,101154.91
2022-10-19T07:33:11.062Z,101160.22
2022-10-19T07:36:14.149Z,101156.69
2022-10-19T07:39:17.396Z,101154.03
2022-10-19T07:42:19.784Z,101157.59
2022-10-19T07:45:21.920Z,101156.72
2022-10-19T07:48:24.505Z,101161.16
2022-10-19T07:54:29.820Z,101159.41
2022-10-19T07:57:31.796Z,101158.50
2022-10-19T08:00:34.125Z,101154.94
2022-10-19T08:04:31.758Z,101154.91
2022-10-19T08:06:58.837Z,101162.88
2022-10-19T08:10:00.910Z,101159.31
2022-10-19T08:13:03.156Z,101163.75
2022-10-19T08:16:06.404Z,101168.16
2022-10-19T08:19:14.125Z,101162.00
2022-10-19T08:22:16.139Z,101160.22
2022-10-19T08:25:18.580Z,101159.34
2022-10-19T08:28:20.607Z,101161.13
2022-10-19T08:31:23.046Z,101151.38
2022-10-19T08:34:25.458Z,101166.47
2022-10-19T08:37:43.792Z,101162.06
2022-10-19T08:40:47.394Z,101155.81
2022-10-19T08:44:09.180Z,101162.03
2022-10-19T08:47:31.409Z,101165.59
2022-10-19T08:50:40.128Z,101161.16
2022-10-19T08:54:02.991Z,101158.47
2022-10-19T08:57:29.280Z,101160.28
2022-10-19T09:01:00.094Z,101170.03
2022-10-19T09:04:10.488Z,101162.06
2022-10-19T09:07:26.521Z,101179.00
2022-10-19T09:10:38.280Z,101171.88
2022-10-19T09:14:00.457Z,101176.31
2022-10-19T09:17:13.100Z,101181.66
2022-10-19T09:20:21.292Z,101177.19
2022-10-19T09:23:30.410Z,101179.84
2022-10-19T09:26:55.513Z,101182.47
2022-10-19T09:29:59.642Z,101179.81
2022-10-19T09:33:02.604Z,101188.69
2022-10-19T09:36:06.851Z,101217.19
2022-10-19T09:39:13.729Z,101231.44
2022-10-19T09:42:25.960Z,101252.69
2022-10-19T09:45:53.119Z,101242.84
2022-10-19T09:48:55.438Z,101237.44
2022-10-19T09:51:57.401Z,101243.66
2022-10-19T09:55:06.874Z,101241.88
2022-10-19T09:58:14.844Z,101247.19
2022-10-19T10:01:41.980Z,101239.25
2022-10-19T10:05:13.494Z,101236.59
2022-10-19T10:08:19.538Z,101234.84
2022-10-19T10:11:25.875Z,101246.38
2022-10-19T10:14:33.339Z,101249.97
2022-10-19T10:17:37.289Z,101242.94
2022-10-19T10:21:01.439Z,101251.00
2022-10-19T10:24:16.704Z,101246.53
2022-10-19T10:27:30.038Z,101236.78
2022-10-19T10:30:36.504Z,101245.66
2022-10-19T10:33:46.267Z,101243.81
2022-10-19T10:36:54.011Z,101240.25
2022-10-19T10:40:00.482Z,101234.97
2022-10-19T10:43:09.546Z,101235.91
2022-10-19T10:46:19.573Z,101236.75
2022-10-19T10:49:25.094Z,101234.06
2022-10-19T10:52:29.350Z,101233.19
2022-10-19T10:55:32.884Z,101239.34
2022-10-19T10:58:53.621Z,101232.94
2022-10-19T11:02:14.522Z,101224.75
2022-10-19T11:05:23.664Z,101236.19
2022-10-19T11:08:50.574Z,101233.50
2022-10-19T11:11:56.127Z,101245.91
2022-10-19T11:15:08.830Z,101239.56
2022-10-19T11:18:22.962Z,101245.66
2022-10-19T11:21:51.190Z,101233.28
2022-10-19T11:25:32.525Z,101240.50
2022-10-19T11:28:46.784Z,101247.59
2022-10-19T11:31:56.895Z,101245.13
2022-10-19T11:35:17.768Z,101244.97
2022-10-19T11:38:57.444Z,101254.66
2022-10-19T11:42:41.341Z,101255.69
2022-10-19T11:45:52.506Z,101250.53
2022-10-19T11:49:36.506Z,101247.84
2022-10-19T11:53:03.267Z,101248.84
2022-10-19T11:56:44.835Z,101263.09
2022-10-19T12:00:38.710Z,101251.59
2022-10-19T12:03:47.538Z,101265.84
2022-10-19T12:07:31.532Z,101266.69
2022-10-19T12:10:48.510Z,101270.41
2022-10-19T12:13:57.159Z,101263.25
2022-10-19T12:17:08.753Z,101265.97
2022-10-19T12:20:20.113Z,101274.00
2022-10-19T12:23:29.420Z,101263.19
2022-10-19T12:26:34.953Z,101265.72
2022-10-19T12:29:41.061Z,101260.06
2022-10-19T12:33:03.653Z,101252.81
2022-10-19T12:36:36.319Z,101260.72
2022-10-19T12:39:43.534Z,101247.47
2022-10-19T12:42:54.428Z,101257.34
2022-10-19T12:46:11.229Z,101259.34
2022-10-19T12:49:37.158Z,101261.97
2022-10-19T12:52:48.172Z,101261.75
2022-10-19T12:56:08.970Z,101259.03
2022-10-19T12:59:22.954Z,101269.88
2022-10-19T13:02:29.606Z,101267.19
2022-10-19T13:05:33.542Z,101283.25
2022-10-19T13:08:46.758Z,101279.66
2022-10-19T13:12:21.351Z,101286.06
2022-10-19T13:15:35.209Z,101287.19
2022-10-19T13:19:15.719Z,101304.06
2022-10-19T13:22:26.691Z,101293.31
2022-10-19T13:25:35.418Z,101302.13
2022-10-19T13:28:38.637Z,101292.22
2022-10-19T13:31:41.122Z,101302.75
2022-10-19T13:34:43.350Z,101305.41
2022-10-19T13:37:45.728Z,101319.81
2022-10-19T13:40:47.740Z,101319.88
2022-10-19T13:43:51.144Z,101328.91
2022-10-19T13:47:14.982Z,101341.56
2022-10-19T13:50:25.737Z,101340.78
2022-10-19T13:53:57.764Z,101342.56
2022-10-19T13:57:38.697Z,101355.06
2022-10-19T14:01:18.161Z,101355.84
2022-10-19T14:04:43.568Z,101351.28
2022-10-19T14:08:04.362Z,101362.81
2022-10-19T14:11:16.202Z,101364.63
2022-10-19T14:14:22.247Z,101369.09
2022-10-19T14:17:34.091Z,101375.41
2022-10-19T14:20:38.680Z,101369.13
2022-10-19T14:23:41.162Z,101372.72
2022-10-19T14:26:43.245Z,101376.19
2022-10-19T14:29:47.759Z,101372.50
2022-10-19T14:32:49.875Z,101383.03
2022-10-19T14:35:52.940Z,101383.91
2022-10-19T14:38:56.169Z,101381.13
2022-10-19T14:42:04.656Z,101390.84
2022-10-19T14:45:18.310Z,101396.03
2022-10-19T14:48:20.698Z,101402.25
2022-10-19T14:51:30.510Z,101407.50
2022-10-19T14:54:38.942Z,101402.06
2022-10-19T14:57:43.047Z,101399.94
2022-10-19T15:00:48.011Z,101412.47
2022-10-19T15:03:50.545Z,101420.25
2022-10-19T15:06:54.028Z,101412.16
2022-10-19T15:09:58.687Z,101420.13
2022-10-19T15:13:03.871Z,101422.72
2022-10-19T15:16:06.274Z,101425.19
2022-10-19T15:19:17.403Z,101445.53
2022-10-19T15:22:41.669Z,101439.38
2022-10-19T15:25:43.968Z,101437.59
2022-10-19T15:28:47.428Z,101442.81
2022-10-19T15:31:50.591Z,101453.47
2022-10-19T15:34:52.732Z,101441.00
2022-10-19T15:38:27.396Z,101452.28
2022-10-19T15:41:32.525Z,101456.84
2022-10-19T15:44:44.421Z,101451.59
2022-10-19T15:48:25.136Z,101461.22
2022-10-19T15:51:27.712Z,101471.72
2022-10-19T15:54:30.055Z,101486.69
2022-10-19T15:57:35.007Z,101487.63
2022-10-19T16:00:38.139Z,101497.31
2022-10-19T16:03:40.502Z,101497.00
2022-10-19T16:06:45.257Z,101501.31
2022-10-19T16:09:47.675Z,101504.66
2022-10-19T16:12:49.865Z,101502.72
2022-10-19T16:16:01.382Z,101516.97
2022-10-19T16:19:13.435Z,101518.44
2022-10-19T16:22:17.157Z,101525.66
2022-10-19T16:25:19.886Z,101528.06
2022-10-19T16:28:23.253Z,101538.66
2022-10-19T16:31:25.347Z,101526.97
2022-10-19T16:34:27.973Z,101533.00
2022-10-19T16:37:30.038Z,101538.38
2022-10-19T16:40:32.814Z,101536.69
2022-10-19T16:43:35.668Z,101540.97
2022-10-19T16:46:38.610Z,101545.19
2022-10-19T16:49:40.671Z,101543.28
2022-10-19T16:52:43.147Z,101549.53
2022-10-19T16:55:45.937Z,101560.22
2022-10-19T16:58:49.590Z,101556.53
2022-10-19T17:01:52.251Z,101559.00
2022-10-19T17:04:54.495Z,101570.59
2022-10-19T17:07:57.971Z,101567.94
2022-10-19T17:11:17.022Z,101579.31
2022-10-19T17:14:19.195Z,101581.03
2022-10-19T17:17:21.599Z,101579.31
2022-10-19T17:20:23.827Z,101585.34
2022-10-19T17:23:26.298Z,101596.84
2022-10-19T17:26:31.315Z,101595.81
2022-10-19T17:29:33.913Z,101598.88
2022-10-19T17:32:36.283Z,101602.56
2022-10-19T17:35:38.703Z,101600.84
2022-10-19T17:38:41.723Z,101606.91
2022-10-19T17:41:45.662Z,101603.25
2022-10-19T17:44:48.312Z,101615.72
2022-10-19T17:47:50.720Z,101614.56
2022-10-19T17:50:57.674Z,101616.09
2022-10-19T17:54:02.624Z,101618.84
2022-10-19T17:57:04.843Z,101612.50
2022-10-19T18:00:08.130Z,101622.03
2022-10-19T18:03:14.516Z,101620.03
2022-10-19T18:06:23.628Z,101613.56
2022-10-19T18:09:26.629Z,101617.94
2022-10-19T18:12:29.543Z,101626.50
2022-10-19T18:15:31.703Z,101625.53
2022-10-19T18:18:36.943Z,101624.66
2022-10-19T18:21:40.816Z,101623.69
2022-10-19T18:24:43.243Z,101631.53
2022-10-19T18:27:45.507Z,101642.13
2022-10-19T18:30:47.790Z,101644.41
2022-10-19T18:33:57.285Z,101645.19
2022-10-19T18:37:00.826Z,101640.69
2022-10-19T18:40:03.053Z,101645.94
2022-10-19T18:43:06.635Z,101643.31
2022-10-19T18:46:10.474Z,101644.03
2022-10-19T18:49:13.282Z,101650.53
2022-10-19T18:52:17.266Z,101646.03
2022-10-19T18:55:21.798Z,101649.50
2022-10-19T18:58:24.371Z,101659.16
2022-10-19T19:01:28.507Z,101660.03
2022-10-19T19:04:30.707Z,101655.44
2022-10-19T19:07:33.371Z,101668.63
2022-10-19T19:10:35.622Z,101669.44
2022-10-19T19:13:39.042Z,101671.63
2022-10-19T19:16:42.909Z,101679.59
2022-10-19T19:19:45.384Z,101682.88
2022-10-19T19:22:47.587Z,101697.44
2022-10-19T19:25:50.042Z,101696.19
2022-10-19T19:28:52.317Z,101691.78
2022-10-19T19:31:54.687Z,101698.03
2022-10-19T19:34:56.922Z,101708.41
2022-10-19T19:38:00.056Z,101710.84
2022-10-19T19:41:07.670Z,101714.59
2022-10-19T19:44:10.221Z,101718.19
2022-10-19T19:47:12.641Z,101713.66
2022-10-19T19:50:15.363Z,101716.09
2022-10-19T19:53:17.987Z,101721.84
2022-10-19T19:56:21.495Z,101725.53
2022-10-19T19:59:24.113Z,101724.56
2022-10-19T20:02:26.957Z,101735.16
2022-10-19T20:05:29.735Z,101732.69
2022-10-19T20:08:32.589Z,101735.13
2022-10-19T20:11:37.250Z,101744.03
2022-10-19T20:14:42.645Z,101738.41
2022-10-19T20:17:45.795Z,101750.09
2022-10-19T20:20:49.268Z,101755.50
2022-10-19T20:23:55.334Z,101759.00
2022-10-19T20:26:57.828Z,101762.41
2022-10-19T20:29:59.981Z,101757.50
2022-10-19T20:33:20.774Z,101763.69
2022-10-19T20:36:24.754Z,101766.31
2022-10-19T20:39:27.312Z,101761.75
2022-10-19T20:42:29.517Z,101764.38
2022-10-19T20:45:31.989Z,101766.59
2022-10-19T20:48:34.811Z,101764.06
2022-10-19T20:51:38.012Z,101768.81
2022-10-19T20:54:40.724Z,101765.44
2022-10-19T20:57:43.202Z,101770.72
2022-10-19T21:00:45.269Z,101777.78
2022-10-19T21:03:59.187Z,101773.56
2022-10-19T21:07:01.334Z,101782.31
2022-10-19T21:10:03.847Z,101785.97
2022-10-19T21:13:05.859Z,101791.81
2022-10-19T21:16:10.051Z,101794.47
2022-10-19T21:19:17.525Z,101788.41
2022-10-19T21:22:19.802Z,101793.41
2022-10-19T21:25:21.891Z,101785.03
2022-10-19T21:28:24.115Z,101786.94
2022-10-19T21:31:27.019Z,101785.81
2022-10-19T21:34:31.063Z,101796.28
2022-10-19T21:37:33.322Z,101787.44
2022-10-19T21:40:36.526Z,101786.88
2022-10-19T21:43:38.754Z,101789.59
2022-10-19T21:46:42.999Z,101792.25
2022-10-19T21:49:45.100Z,101777.19
2022-10-19T21:52:47.341Z,101782.56
2022-10-19T21:55:50.856Z,101780.88
2022-10-19T21:58:54.188Z,101791.34
2022-10-19T22:01:57.605Z,101778.16
2022-10-19T22:05:00.002Z,101775.16
2022-10-19T22:08:03.103Z,101773.91
2022-10-19T22:11:07.645Z,101795.19
2022-10-19T22:14:14.298Z,101798.84
2022-10-19T22:17:17.513Z,101797.59
2022-10-19T22:20:20.199Z,101798.84
2022-10-19T22:27:27.312Z,101800.94
2022-10-19T22:33:38.297Z,101807.78
2022-10-19T22:36:40.803Z,101811.31
2022-10-19T22:39:43.265Z,101814.22
2022-10-19T22:42:45.728Z,101813.09
2022-10-19T22:45:49.194Z,101824.28
2022-10-19T22:48:51.681Z,101819.78
2022-10-19T22:51:53.845Z,101818.75
2022-10-19T22:54:56.555Z,101827.72
2022-10-19T22:58:14.487Z,101825.06
2022-10-19T23:01:17.080Z,101834.38
2022-10-19T23:04:19.980Z,101834.31
2022-10-19T23:07:22.550Z,101830.72
2022-10-19T23:10:25.152Z,101828.28
2022-10-19T23:13:28.677Z,101833.41
2022-10-19T23:16:31.380Z,101836.06
2022-10-19T23:19:34.087Z,101829.19
2022-10-19T23:22:36.405Z,101844.53
2022-10-19T23:25:38.751Z,101853.91
2022-10-19T23:28:42.442Z,101859.19
2022-10-19T23:31:48.234Z,101869.81
2022-10-19T23:34:50.272Z,101874.16
2022-10-19T23:37:52.376Z,101871.59
2022-10-19T23:40:54.653Z,101874.09
2022-10-19T23:43:59.565Z,101884.38
2022-10-19T23:47:01.569Z,101870.97
2022-10-19T23:50:04.002Z,101894.72
2022-10-19T23:53:05.982Z,101881.38
2022-10-19T23:56:23.251Z,101885.53
2022-10-19T23:59:25.367Z,101892.47
